sensor_id;sensor_type;location;lat;lon;timestamp;temperature;humidity
20773;DHT22;10546;50.674;4.616;2023-05-20T06:54:22;22.10;99.90
20773;DHT22;10546;50.674;4.616;2023-05-20T06:56:48;21.80;99.90
20773;DHT22;10546;50.674;4.616;2023-05-20T06:59:13;21.20;99.90
20773;DHT22;10546;50.674;4.616;2023-05-20T07:01:39;21.60;99.90
20773;DHT22;10546;50.674;4.616;2023-05-20T07:04:05;21.50;99.90
20773;DHT22;10546;50.674;4.616;2023-05-20T07:06:31;21.20;99.90
20773;DHT22;10546;50.674;4.616;2023-05-20T07:08:57;22.10;99.90
20773;DHT22;10546;50.674;4.616;2023-05-20T07:11:22;22.50;99.90
20773;DHT22;10546;50.674;4.616;2023-05-20T07:13:49;22.30;99.90
20773;DHT22;10546;50.674;4.616;2023-05-20T07:16:15;22.20;99.90
20773;DHT22;10546;50.674;4.616;2023-05-20T07:18:40;22.60;99.90
20773;DHT22;10546;50.674;4.616;2023-05-20T07:21:06;22.40;99.90
20773;DHT22;10546;50.674;4.616;2023-05-20T07:23:32;22.10;99.90
20773;DHT22;10546;50.674;4.616;2023-05-20T07:25:57;22.10;99.90
20773;DHT22;10546;50.674;4.616;2023-05-20T07:28:23;22.30;99.90
20773;DHT22;10546;50.674;4.616;2023-05-20T07:30:49;22.10;99.90
20773;DHT22;10546;50.674;4.616;2023-05-20T07:33:15;21.70;99.90
20773;DHT22;10546;50.674;4.616;2023-05-20T07:35:42;21.40;99.90
20773;DHT22;10546;50.674;4.616;2023-05-20T07:38:10;21.50;99.90
20773;DHT22;10546;50.674;4.616;2023-05-20T07:40:37;21.80;99.90
20773;DHT22;10546;50.674;4.616;2023-05-20T07:43:05;22.70;99.90
20773;DHT22;10546;50.674;4.616;2023-05-20T07:45:33;22.90;99.90
20773;DHT22;10546;50.674;4.616;2023-05-20T07:47:59;23.40;99.90
20773;DHT22;10546;50.674;4.616;2023-05-20T07:50:25;23.00;99.90
20773;DHT22;10546;50.674;4.616;2023-05-20T07:52:50;22.80;99.90
20773;DHT22;10546;50.674;4.616;2023-05-20T07:55:16;22.10;99.90
20773;DHT22;10546;50.674;4.616;2023-05-20T07:57:42;22.30;99.90
20773;DHT22;10546;50.674;4.616;2023-05-20T08:00:09;23.10;99.90
20773;DHT22;10546;50.674;4.616;2023-05-20T08:02:36;23.30;99.90
20773;DHT22;10546;50.674;4.616;2023-05-20T08:05:02;23.70;99.90
20773;DHT22;10546;50.674;4.616;2023-05-20T08:07:27;22.90;99.90
20773;DHT22;10546;50.674;4.616;2023-05-20T08:09:53;22.70;99.90
20773;DHT22;10546;50.674;4.616;2023-05-20T08:12:18;22.80;99.90
20773;DHT22;10546;50.674;4.616;2023-05-20T08:14:47;23.30;99.90
20773;DHT22;10546;50.674;4.616;2023-05-20T08:17:13;23.90;99.90
20773;DHT22;10546;50.674;4.616;2023-05-20T08:19:38;24.10;99.90
20773;DHT22;10546;50.674;4.616;2023-05-20T08:22:05;23.50;99.90
20773;DHT22;10546;50.674;4.616;2023-05-20T08:24:35;22.90;99.90
20773;DHT22;10546;50.674;4.616;2023-05-20T08:27:01;22.70;99.90
20773;DHT22;10546;50.674;4.616;2023-05-20T08:29:27;22.90;99.90
20773;DHT22;10546;50.674;4.616;2023-05-20T08:31:53;23.40;99.90
20773;DHT22;10546;50.674;4.616;2023-05-20T08:34:19;23.90;99.90
20773;DHT22;10546;50.674;4.616;2023-05-20T08:36:45;23.70;99.50
20773;DHT22;10546;50.674;4.616;2023-05-20T08:39:21;23.60;99.30
20773;DHT22;10546;50.674;4.616;2023-05-20T08:41:54;23.20;99.40
20773;DHT22;10546;50.674;4.616;2023-05-20T08:44:25;22.90;99.90
20773;DHT22;10546;50.674;4.616;2023-05-20T08:46:54;22.60;99.80
20773;DHT22;10546;50.674;4.616;2023-05-20T08:49:21;22.50;99.90
20773;DHT22;10546;50.674;4.616;2023-05-20T08:51:47;22.70;99.90
20773;DHT22;10546;50.674;4.616;2023-05-20T08:54:13;22.90;99.50
20773;DHT22;10546;50.674;4.616;2023-05-20T08:56:42;23.30;99.40
20773;DHT22;10546;50.674;4.616;2023-05-20T08:59:08;23.40;98.90
20773;DHT22;10546;50.674;4.616;2023-05-20T09:01:41;23.40;99.40
20773;DHT22;10546;50.674;4.616;2023-05-20T09:04:07;23.80;99.00
20773;DHT22;10546;50.674;4.616;2023-05-20T09:06:44;24.40;98.60
20773;DHT22;10546;50.674;4.616;2023-05-20T09:09:12;23.90;98.50
20773;DHT22;10546;50.674;4.616;2023-05-20T09:11:42;23.80;98.70
20773;DHT22;10546;50.674;4.616;2023-05-20T09:14:08;23.80;98.70
20773;DHT22;10546;50.674;4.616;2023-05-20T09:16:34;24.10;98.80
20773;DHT22;10546;50.674;4.616;2023-05-20T09:19:00;24.10;98.50
20773;DHT22;10546;50.674;4.616;2023-05-20T09:21:26;23.70;98.60
20773;DHT22;10546;50.674;4.616;2023-05-20T09:23:53;23.40;99.10
20773;DHT22;10546;50.674;4.616;2023-05-20T09:26:22;23.60;98.90
20773;DHT22;10546;50.674;4.616;2023-05-20T09:28:49;23.40;99.20
20773;DHT22;10546;50.674;4.616;2023-05-20T09:31:16;23.10;99.30
20773;DHT22;10546;50.674;4.616;2023-05-20T09:33:42;22.70;99.30
20773;DHT22;10546;50.674;4.616;2023-05-20T09:36:09;22.40;99.60
20773;DHT22;10546;50.674;4.616;2023-05-20T09:38:36;22.10;99.90
20773;DHT22;10546;50.674;4.616;2023-05-20T09:41:10;22.10;99.90
20773;DHT22;10546;50.674;4.616;2023-05-20T09:43:38;22.00;99.90
20773;DHT22;10546;50.674;4.616;2023-05-20T09:46:04;22.90;99.90
20773;DHT22;10546;50.674;4.616;2023-05-20T09:48:30;23.40;99.50
20773;DHT22;10546;50.674;4.616;2023-05-20T09:50:56;24.00;99.10
20773;DHT22;10546;50.674;4.616;2023-05-20T09:53:25;25.00;98.50
20773;DHT22;10546;50.674;4.616;2023-05-20T09:55:52;25.00;97.90
20773;DHT22;10546;50.674;4.616;2023-05-20T09:58:19;25.40;98.00
20773;DHT22;10546;50.674;4.616;2023-05-20T10:00:45;26.00;97.40
20773;DHT22;10546;50.674;4.616;2023-05-20T10:03:11;25.70;97.10
20773;DHT22;10546;50.674;4.616;2023-05-20T10:05:42;24.70;98.10
20773;DHT22;10546;50.674;4.616;2023-05-20T10:11:22;23.60;99.10
20773;DHT22;10546;50.674;4.616;2023-05-20T10:14:08;23.80;99.10
20773;DHT22;10546;50.674;4.616;2023-05-20T10:16:52;24.20;98.90
20773;DHT22;10546;50.674;4.616;2023-05-20T10:19:30;24.40;98.30
20773;DHT22;10546;50.674;4.616;2023-05-20T10:22:01;24.40;98.50
20773;DHT22;10546;50.674;4.616;2023-05-20T10:24:39;25.00;98.60
20773;DHT22;10546;50.674;4.616;2023-05-20T10:27:11;24.20;98.60
20773;DHT22;10546;50.674;4.616;2023-05-20T10:29:51;24.40;98.30
20773;DHT22;10546;50.674;4.616;2023-05-20T10:35:01;25.10;97.70
20773;DHT22;10546;50.674;4.616;2023-05-20T10:37:33;25.60;97.10
20773;DHT22;10546;50.674;4.616;2023-05-20T10:40:17;24.80;97.70
20773;DHT22;10546;50.674;4.616;2023-05-20T10:42:46;24.70;97.80
20773;DHT22;10546;50.674;4.616;2023-05-20T10:45:27;24.50;98.30
20773;DHT22;10546;50.674;4.616;2023-05-20T10:47:57;24.60;98.40
20773;DHT22;10546;50.674;4.616;2023-05-20T10:50:36;24.40;98.10
20773;DHT22;10546;50.674;4.616;2023-05-20T10:53:15;23.80;98.40
20773;DHT22;10546;50.674;4.616;2023-05-20T10:55:50;23.80;98.80
20773;DHT22;10546;50.674;4.616;2023-05-20T10:58:17;23.40;98.70
20773;DHT22;10546;50.674;4.616;2023-05-20T11:00:53;22.90;99.30
20773;DHT22;10546;50.674;4.616;2023-05-20T11:03:24;22.80;99.40
20773;DHT22;10546;50.674;4.616;2023-05-20T11:05:50;23.10;99.80
20773;DHT22;10546;50.674;4.616;2023-05-20T11:08:16;23.60;99.80
20773;DHT22;10546;50.674;4.616;2023-05-20T11:10:42;23.60;99.70
20773;DHT22;10546;50.674;4.616;2023-05-20T11:13:11;23.50;99.10
20773;DHT22;10546;50.674;4.616;2023-05-20T11:15:38;23.00;99.10
20773;DHT22;10546;50.674;4.616;2023-05-20T11:18:04;23.30;99.50
20773;DHT22;10546;50.674;4.616;2023-05-20T11:20:30;23.00;99.50
20773;DHT22;10546;50.674;4.616;2023-05-20T11:23:00;22.90;99.80
20773;DHT22;10546;50.674;4.616;2023-05-20T11:25:26;23.00;99.50
20773;DHT22;10546;50.674;4.616;2023-05-20T11:27:52;22.40;99.90
20773;DHT22;10546;50.674;4.616;2023-05-20T11:30:18;22.10;99.90
20773;DHT22;10546;50.674;4.616;2023-05-20T11:33:00;22.60;99.90
20773;DHT22;10546;50.674;4.616;2023-05-20T11:35:27;23.10;99.90
20773;DHT22;10546;50.674;4.616;2023-05-20T11:38:12;23.30;99.60
20773;DHT22;10546;50.674;4.616;2023-05-20T11:41:00;23.60;99.60
20773;DHT22;10546;50.674;4.616;2023-05-20T11:43:25;23.40;99.30
20773;DHT22;10546;50.674;4.616;2023-05-20T11:45:53;23.80;99.90
20773;DHT22;10546;50.674;4.616;2023-05-20T11:48:19;23.80;99.40
20773;DHT22;10546;50.674;4.616;2023-05-20T11:50:46;23.10;99.90
20773;DHT22;10546;50.674;4.616;2023-05-20T11:53:20;23.10;99.90
20773;DHT22;10546;50.674;4.616;2023-05-20T11:55:51;22.90;99.90
20773;DHT22;10546;50.674;4.616;2023-05-20T11:58:28;23.00;99.90
20773;DHT22;10546;50.674;4.616;2023-05-20T12:00:55;23.30;99.90
20773;DHT22;10546;50.674;4.616;2023-05-20T12:03:21;23.30;99.90
20773;DHT22;10546;50.674;4.616;2023-05-20T12:05:46;22.90;99.90
20773;DHT22;10546;50.674;4.616;2023-05-20T12:08:13;22.90;99.90
20773;DHT22;10546;50.674;4.616;2023-05-20T12:10:39;22.70;99.90
20773;DHT22;10546;50.674;4.616;2023-05-20T12:13:06;22.60;99.90
20773;DHT22;10546;50.674;4.616;2023-05-20T12:15:34;22.60;99.90
20773;DHT22;10546;50.674;4.616;2023-05-20T12:18:00;23.00;99.90
20773;DHT22;10546;50.674;4.616;2023-05-20T12:20:26;22.90;99.90
20773;DHT22;10546;50.674;4.616;2023-05-20T12:22:53;22.70;99.90
20773;DHT22;10546;50.674;4.616;2023-05-20T12:25:19;22.90;99.90
20773;DHT22;10546;50.674;4.616;2023-05-20T12:27:47;23.40;99.90
20773;DHT22;10546;50.674;4.616;2023-05-20T12:30:17;23.20;99.90
20773;DHT22;10546;50.674;4.616;2023-05-20T12:32:44;23.10;99.90
20773;DHT22;10546;50.674;4.616;2023-05-20T12:35:11;23.20;99.90
20773;DHT22;10546;50.674;4.616;2023-05-20T12:37:37;23.10;99.90
20773;DHT22;10546;50.674;4.616;2023-05-20T12:40:04;23.00;99.90
20773;DHT22;10546;50.674;4.616;2023-05-20T12:42:40;23.20;99.90
20773;DHT22;10546;50.674;4.616;2023-05-20T12:45:07;23.20;99.90
20773;DHT22;10546;50.674;4.616;2023-05-20T12:47:33;23.10;99.90
20773;DHT22;10546;50.674;4.616;2023-05-20T12:50:00;23.40;99.90
20773;DHT22;10546;50.674;4.616;2023-05-20T12:52:26;23.20;99.90
20773;DHT22;10546;50.674;4.616;2023-05-20T12:54:55;22.50;99.90
20773;DHT22;10546;50.674;4.616;2023-05-20T12:57:21;22.70;99.90
20773;DHT22;10546;50.674;4.616;2023-05-20T12:59:47;22.80;99.90
20773;DHT22;10546;50.674;4.616;2023-05-20T13:02:13;23.20;99.90
20773;DHT22;10546;50.674;4.616;2023-05-20T13:04:38;23.30;99.90
20773;DHT22;10546;50.674;4.616;2023-05-20T13:07:04;23.20;99.90
20773;DHT22;10546;50.674;4.616;2023-05-20T13:09:30;23.10;99.90
20773;DHT22;10546;50.674;4.616;2023-05-20T13:11:57;22.90;99.90
20773;DHT22;10546;50.674;4.616;2023-05-20T13:14:22;22.90;99.90
20773;DHT22;10546;50.674;4.616;2023-05-20T13:16:48;22.70;99.90
20773;DHT22;10546;50.674;4.616;2023-05-20T13:19:14;22.90;99.90
20773;DHT22;10546;50.674;4.616;2023-05-20T13:21:40;23.00;99.90
20773;DHT22;10546;50.674;4.616;2023-05-20T13:24:06;22.90;99.90
20773;DHT22;10546;50.674;4.616;2023-05-20T13:26:34;23.00;99.90
20773;DHT22;10546;50.674;4.616;2023-05-20T13:29:00;22.70;99.90
20773;DHT22;10546;50.674;4.616;2023-05-20T13:31:25;22.90;99.90
20773;DHT22;10546;50.674;4.616;2023-05-20T13:33:51;23.20;99.90
20773;DHT22;10546;50.674;4.616;2023-05-20T13:36:17;23.40;99.90
20773;DHT22;10546;50.674;4.616;2023-05-20T13:38:43;23.50;99.90
20773;DHT22;10546;50.674;4.616;2023-05-20T13:41:09;23.50;99.90
20773;DHT22;10546;50.674;4.616;2023-05-20T13:43:34;23.30;99.90
20773;DHT22;10546;50.674;4.616;2023-05-20T13:46:00;23.20;99.90
20773;DHT22;10546;50.674;4.616;2023-05-20T13:48:26;23.20;99.90
20773;DHT22;10546;50.674;4.616;2023-05-20T13:50:52;23.30;99.90
20773;DHT22;10546;50.674;4.616;2023-05-20T13:53:17;23.20;99.90
20773;DHT22;10546;50.674;4.616;2023-05-20T13:55:43;23.20;99.90
20773;DHT22;10546;50.674;4.616;2023-05-20T13:58:09;23.10;99.90
20773;DHT22;10546;50.674;4.616;2023-05-20T14:00:38;23.10;99.90
20773;DHT22;10546;50.674;4.616;2023-05-20T14:03:04;22.90;99.90
20773;DHT22;10546;50.674;4.616;2023-05-20T14:05:30;22.50;99.90
20773;DHT22;10546;50.674;4.616;2023-05-20T14:07:57;22.20;99.90
20773;DHT22;10546;50.674;4.616;2023-05-20T14:10:22;22.30;99.90
20773;DHT22;10546;50.674;4.616;2023-05-20T14:12:48;22.20;99.90
20773;DHT22;10546;50.674;4.616;2023-05-20T14:15:14;22.20;99.90
20773;DHT22;10546;50.674;4.616;2023-05-20T14:17:39;22.30;99.90
20773;DHT22;10546;50.674;4.616;2023-05-20T14:20:06;22.30;99.90
20773;DHT22;10546;50.674;4.616;2023-05-20T14:22:32;22.10;99.90
20773;DHT22;10546;50.674;4.616;2023-05-20T14:24:58;22.00;99.90
20773;DHT22;10546;50.674;4.616;2023-05-20T14:27:23;22.00;99.90
20773;DHT22;10546;50.674;4.616;2023-05-20T14:29:49;21.90;99.90
20773;DHT22;10546;50.674;4.616;2023-05-20T14:32:15;21.80;99.90
20773;DHT22;10546;50.674;4.616;2023-05-20T14:34:41;21.90;99.90
20773;DHT22;10546;50.674;4.616;2023-05-20T14:37:06;21.90;99.90
20773;DHT22;10546;50.674;4.616;2023-05-20T14:39:38;22.10;99.90
20773;DHT22;10546;50.674;4.616;2023-05-20T14:42:04;22.20;99.90
20773;DHT22;10546;50.674;4.616;2023-05-20T14:44:30;22.10;99.90
20773;DHT22;10546;50.674;4.616;2023-05-20T14:46:56;21.90;99.90
20773;DHT22;10546;50.674;4.616;2023-05-20T14:49:22;21.80;99.90
20773;DHT22;10546;50.674;4.616;2023-05-20T14:51:48;21.70;99.90
20773;DHT22;10546;50.674;4.616;2023-05-20T14:54:13;21.80;99.90
20773;DHT22;10546;50.674;4.616;2023-05-20T14:56:43;22.20;99.90
20773;DHT22;10546;50.674;4.616;2023-05-20T14:59:08;22.60;99.90
20773;DHT22;10546;50.674;4.616;2023-05-20T15:01:34;22.70;99.90
20773;DHT22;10546;50.674;4.616;2023-05-20T15:04:00;22.80;99.90
20773;DHT22;10546;50.674;4.616;2023-05-20T15:06:26;22.50;99.90
20773;DHT22;10546;50.674;4.616;2023-05-20T15:08:51;22.80;99.90
20773;DHT22;10546;50.674;4.616;2023-05-20T15:11:18;22.60;99.90
20773;DHT22;10546;50.674;4.616;2023-05-20T15:13:43;22.50;99.90
20773;DHT22;10546;50.674;4.616;2023-05-20T15:16:11;22.40;99.90
20773;DHT22;10546;50.674;4.616;2023-05-20T15:18:37;22.10;99.90
20773;DHT22;10546;50.674;4.616;2023-05-20T15:21:03;21.70;99.90
20773;DHT22;10546;50.674;4.616;2023-05-20T15:23:29;21.70;99.90
20773;DHT22;10546;50.674;4.616;2023-05-20T15:25:55;21.60;99.90
20773;DHT22;10546;50.674;4.616;2023-05-20T15:28:23;21.50;99.90
20773;DHT22;10546;50.674;4.616;2023-05-20T15:30:52;21.40;99.90
20773;DHT22;10546;50.674;4.616;2023-05-20T15:33:18;21.30;99.90
20773;DHT22;10546;50.674;4.616;2023-05-20T15:35:44;20.90;99.90
20773;DHT22;10546;50.674;4.616;2023-05-20T15:38:10;21.00;99.90
20773;DHT22;10546;50.674;4.616;2023-05-20T15:40:35;21.10;99.90
20773;DHT22;10546;50.674;4.616;2023-05-20T15:43:01;21.10;99.90
20773;DHT22;10546;50.674;4.616;2023-05-20T15:45:28;21.20;99.90
20773;DHT22;10546;50.674;4.616;2023-05-20T15:47:54;21.20;99.90
20773;DHT22;10546;50.674;4.616;2023-05-20T15:50:20;21.40;99.90
20773;DHT22;10546;50.674;4.616;2023-05-20T15:52:47;21.40;99.90
20773;DHT22;10546;50.674;4.616;2023-05-20T15:55:13;21.50;99.90
20773;DHT22;10546;50.674;4.616;2023-05-20T15:57:39;21.20;99.90
20773;DHT22;10546;50.674;4.616;2023-05-20T16:00:05;21.30;99.90
20773;DHT22;10546;50.674;4.616;2023-05-20T16:02:34;21.50;99.90
20773;DHT22;10546;50.674;4.616;2023-05-20T16:05:00;21.40;99.90
20773;DHT22;10546;50.674;4.616;2023-05-20T16:07:26;21.50;99.90
20773;DHT22;10546;50.674;4.616;2023-05-20T16:09:52;21.70;99.90
20773;DHT22;10546;50.674;4.616;2023-05-20T16:12:18;21.70;99.90
20773;DHT22;10546;50.674;4.616;2023-05-20T16:14:44;21.10;99.90
20773;DHT22;10546;50.674;4.616;2023-05-20T16:17:11;21.00;99.90
20773;DHT22;10546;50.674;4.616;2023-05-20T16:19:36;20.80;99.90
20773;DHT22;10546;50.674;4.616;2023-05-20T16:22:02;20.80;99.90
20773;DHT22;10546;50.674;4.616;2023-05-20T16:24:28;20.60;99.90
20773;DHT22;10546;50.674;4.616;2023-05-20T16:26:53;20.30;99.90
20773;DHT22;10546;50.674;4.616;2023-05-20T16:29:19;20.20;99.90
20773;DHT22;10546;50.674;4.616;2023-05-20T16:31:45;20.20;99.90
20773;DHT22;10546;50.674;4.616;2023-05-20T16:34:11;20.20;99.90
20773;DHT22;10546;50.674;4.616;2023-05-20T16:36:37;20.30;99.90
20773;DHT22;10546;50.674;4.616;2023-05-20T16:39:03;20.10;99.90
20773;DHT22;10546;50.674;4.616;2023-05-20T16:41:29;20.20;99.90
20773;DHT22;10546;50.674;4.616;2023-05-20T16:43:55;20.40;99.90
20773;DHT22;10546;50.674;4.616;2023-05-20T16:46:21;20.30;99.90
20773;DHT22;10546;50.674;4.616;2023-05-20T16:48:47;20.20;99.90
20773;DHT22;10546;50.674;4.616;2023-05-20T16:51:12;20.10;99.90
20773;DHT22;10546;50.674;4.616;2023-05-20T16:53:38;20.10;99.90
20773;DHT22;10546;50.674;4.616;2023-05-20T16:56:07;20.10;99.90
20773;DHT22;10546;50.674;4.616;2023-05-20T16:58:33;20.00;99.90
20773;DHT22;10546;50.674;4.616;2023-05-20T17:01:00;19.90;99.90
20773;DHT22;10546;50.674;4.616;2023-05-20T17:03:26;20.00;99.90
20773;DHT22;10546;50.674;4.616;2023-05-20T17:05:52;20.00;99.90
20773;DHT22;10546;50.674;4.616;2023-05-20T17:08:17;20.20;99.90
20773;DHT22;10546;50.674;4.616;2023-05-20T17:10:43;20.10;99.90
20773;DHT22;10546;50.674;4.616;2023-05-20T17:13:09;20.10;99.90
20773;DHT22;10546;50.674;4.616;2023-05-20T17:15:34;20.20;99.90
20773;DHT22;10546;50.674;4.616;2023-05-20T17:18:02;20.20;99.90
20773;DHT22;10546;50.674;4.616;2023-05-20T17:20:28;19.80;99.90
20773;DHT22;10546;50.674;4.616;2023-05-20T17:22:54;19.70;99.90
20773;DHT22;10546;50.674;4.616;2023-05-20T17:25:19;19.70;99.90
20773;DHT22;10546;50.674;4.616;2023-05-20T17:27:45;19.80;99.90
20773;DHT22;10546;50.674;4.616;2023-05-20T17:30:11;19.80;99.90
20773;DHT22;10546;50.674;4.616;2023-05-20T17:32:37;19.70;99.90
20773;DHT22;10546;50.674;4.616;2023-05-20T17:35:04;19.70;99.90
20773;DHT22;10546;50.674;4.616;2023-05-20T17:37:30;19.50;99.90
20773;DHT22;10546;50.674;4.616;2023-05-20T17:39:56;19.40;99.90
20773;DHT22;10546;50.674;4.616;2023-05-20T17:42:22;19.40;99.90
20773;DHT22;10546;50.674;4.616;2023-05-20T17:44:47;19.50;99.90
20773;DHT22;10546;50.674;4.616;2023-05-20T17:47:13;19.80;99.90
20773;DHT22;10546;50.674;4.616;2023-05-20T17:49:39;19.80;99.90
20773;DHT22;10546;50.674;4.616;2023-05-20T17:52:05;19.70;99.90
20773;DHT22;10546;50.674;4.616;2023-05-20T17:54:30;19.70;99.90
20773;DHT22;10546;50.674;4.616;2023-05-20T17:56:56;19.50;99.90
20773;DHT22;10546;50.674;4.616;2023-05-20T17:59:22;19.40;99.90
20773;DHT22;10546;50.674;4.616;2023-05-20T18:01:47;19.40;99.90
20773;DHT22;10546;50.674;4.616;2023-05-20T18:04:13;19.50;99.90
20773;DHT22;10546;50.674;4.616;2023-05-20T18:06:39;19.60;99.90
20773;DHT22;10546;50.674;4.616;2023-05-20T18:09:05;19.70;99.90
20773;DHT22;10546;50.674;4.616;2023-05-20T18:11:31;19.60;99.90
20773;DHT22;10546;50.674;4.616;2023-05-20T18:14:00;19.50;99.90
20773;DHT22;10546;50.674;4.616;2023-05-20T18:16:28;19.40;99.90
20773;DHT22;10546;50.674;4.616;2023-05-20T18:18:54;19.20;99.90
20773;DHT22;10546;50.674;4.616;2023-05-20T18:21:21;19.20;99.90
20773;DHT22;10546;50.674;4.616;2023-05-20T18:23:47;19.00;99.90
20773;DHT22;10546;50.674;4.616;2023-05-20T18:26:13;19.10;99.90
20773;DHT22;10546;50.674;4.616;2023-05-20T18:28:38;19.10;99.90
20773;DHT22;10546;50.674;4.616;2023-05-20T18:31:04;19.20;99.90
20773;DHT22;10546;50.674;4.616;2023-05-20T18:33:30;19.20;99.90
20773;DHT22;10546;50.674;4.616;2023-05-20T18:35:56;19.10;99.90
20773;DHT22;10546;50.674;4.616;2023-05-20T18:38:22;19.10;99.90
20773;DHT22;10546;50.674;4.616;2023-05-20T18:40:48;18.90;99.90
20773;DHT22;10546;50.674;4.616;2023-05-20T18:43:13;18.90;99.90
20773;DHT22;10546;50.674;4.616;2023-05-20T18:45:39;18.90;99.90
20773;DHT22;10546;50.674;4.616;2023-05-20T18:48:05;18.90;99.90
20773;DHT22;10546;50.674;4.616;2023-05-20T18:50:31;18.70;99.90
20773;DHT22;10546;50.674;4.616;2023-05-20T18:52:57;18.60;99.90
20773;DHT22;10546;50.674;4.616;2023-05-20T18:55:23;18.60;99.90
20773;DHT22;10546;50.674;4.616;2023-05-20T18:57:49;18.40;99.90
20773;DHT22;10546;50.674;4.616;2023-05-20T19:00:15;18.50;99.90
20773;DHT22;10546;50.674;4.616;2023-05-20T19:02:41;18.50;99.90
20773;DHT22;10546;50.674;4.616;2023-05-20T19:05:08;18.40;99.90
20773;DHT22;10546;50.674;4.616;2023-05-20T19:07:35;18.40;99.90
20773;DHT22;10546;50.674;4.616;2023-05-20T19:10:01;18.20;99.90
20773;DHT22;10546;50.674;4.616;2023-05-20T19:12:27;18.20;99.90
20773;DHT22;10546;50.674;4.616;2023-05-20T19:14:53;18.10;99.90
20773;DHT22;10546;50.674;4.616;2023-05-20T19:17:18;18.00;99.90
20773;DHT22;10546;50.674;4.616;2023-05-20T19:19:45;17.90;99.90
20773;DHT22;10546;50.674;4.616;2023-05-20T19:22:10;17.80;99.90
20773;DHT22;10546;50.674;4.616;2023-05-20T19:24:36;17.90;99.90
20773;DHT22;10546;50.674;4.616;2023-05-20T19:27:03;17.90;99.90
20773;DHT22;10546;50.674;4.616;2023-05-20T19:29:28;17.80;99.90
20773;DHT22;10546;50.674;4.616;2023-05-20T19:31:55;17.60;99.90
20773;DHT22;10546;50.674;4.616;2023-05-20T19:34:21;17.50;99.90
20773;DHT22;10546;50.674;4.616;2023-05-20T19:36:47;17.50;99.90
20773;DHT22;10546;50.674;4.616;2023-05-20T19:39:13;17.60;99.90
20773;DHT22;10546;50.674;4.616;2023-05-20T19:41:40;17.60;99.90
20773;DHT22;10546;50.674;4.616;2023-05-20T19:44:06;17.60;99.90
20773;DHT22;10546;50.674;4.616;2023-05-20T19:46:34;17.50;99.90
20773;DHT22;10546;50.674;4.616;2023-05-20T19:49:00;17.50;99.90
20773;DHT22;10546;50.674;4.616;2023-05-20T19:51:26;17.50;99.90
20773;DHT22;10546;50.674;4.616;2023-05-20T19:53:51;17.60;99.90
20773;DHT22;10546;50.674;4.616;2023-05-20T19:56:17;17.60;99.90
20773;DHT22;10546;50.674;4.616;2023-05-20T19:58:45;17.50;99.90
20773;DHT22;10546;50.674;4.616;2023-05-20T20:01:11;17.50;99.90
20773;DHT22;10546;50.674;4.616;2023-05-20T20:03:40;17.50;99.90
20773;DHT22;10546;50.674;4.616;2023-05-20T20:06:07;17.50;99.90
20773;DHT22;10546;50.674;4.616;2023-05-20T20:08:33;17.50;99.90
20773;DHT22;10546;50.674;4.616;2023-05-20T20:10:59;17.40;99.90
20773;DHT22;10546;50.674;4.616;2023-05-20T20:13:24;17.40;99.90
20773;DHT22;10546;50.674;4.616;2023-05-20T20:15:50;17.50;99.90
20773;DHT22;10546;50.674;4.616;2023-05-20T20:18:16;17.50;99.90
20773;DHT22;10546;50.674;4.616;2023-05-20T20:20:41;17.50;99.90
20773;DHT22;10546;50.674;4.616;2023-05-20T20:23:07;17.50;99.90
20773;DHT22;10546;50.674;4.616;2023-05-20T20:25:38;17.50;99.90
20773;DHT22;10546;50.674;4.616;2023-05-20T20:28:06;17.50;99.90
20773;DHT22;10546;50.674;4.616;2023-05-20T20:30:33;17.60;99.90
20773;DHT22;10546;50.674;4.616;2023-05-20T20:33:02;17.60;99.90
20773;DHT22;10546;50.674;4.616;2023-05-20T20:35:36;17.50;99.90
20773;DHT22;10546;50.674;4.616;2023-05-20T20:38:02;17.40;99.90
20773;DHT22;10546;50.674;4.616;2023-05-20T20:40:39;17.40;99.90
20773;DHT22;10546;50.674;4.616;2023-05-20T20:43:09;17.40;99.90
20773;DHT22;10546;50.674;4.616;2023-05-20T20:45:45;17.30;99.90
20773;DHT22;10546;50.674;4.616;2023-05-20T20:48:15;17.30;99.90
20773;DHT22;10546;50.674;4.616;2023-05-20T20:50:46;17.30;99.90
